Time;durP1;ratioP1;P1;durP2;ratioP2;P2;SDS_P1;SDS_P2;PMS_P1;PMS_P2;Temp;Humidity;BMP_temperature;BMP_pressure;BME280_temperature;BME280_humidity;BME280_pressure;Samples;Min_cycle;Max_cycle;Signal;HPM_P1;HPM_P2
2023/11/13 00:01:07;;;;;;;0.80;0.80;;;;;;;5.21;91.91;98021.34;5017095;28;20804;-79
2023/11/13 00:03:33;;;;;;;0.80;0.80;;;;;;;5.28;92.02;98007.53;5015832;28;20055;-79
2023/11/13 00:05:58;;;;;;;0.70;0.70;;;;;;;5.16;92.20;97996.47;5017592;28;20041;-81
2023/11/13 00:08:24;;;;;;;0.80;0.80;;;;;;;5.27;92.18;98000.44;5015256;28;20099;-78
2023/11/13 00:10:50;;;;;;;0.80;0.80;;;;;;;5.28;91.77;97999.59;5016782;28;20041;-79
2023/11/13 00:13:17;;;;;;;0.80;0.80;;;;;;;5.23;91.78;97997.63;5015021;28;20042;-79
2023/11/13 00:15:42;;;;;;;0.80;0.80;;;;;;;5.11;91.85;98011.25;5013661;28;20048;-79
2023/11/13 00:18:08;;;;;;;0.80;0.80;;;;;;;5.18;91.94;98005.38;5013812;28;20041;-79
2023/11/13 00:20:34;;;;;;;0.63;0.63;;;;;;;5.19;91.92;97996.59;5015096;28;20033;-78
2023/11/13 00:22:59;;;;;;;0.70;0.70;;;;;;;5.24;92.36;97992.38;5013291;28;20099;-78
2023/11/13 00:25:25;;;;;;;0.80;0.80;;;;;;;5.29;92.29;97981.97;5015743;28;20080;-80
2023/11/13 00:27:50;;;;;;;0.80;0.80;;;;;;;5.27;92.33;97981.00;5014750;28;20041;-79
2023/11/13 00:30:16;;;;;;;0.70;0.70;;;;;;;5.28;92.94;97966.97;5018342;28;20048;-79
2023/11/13 00:32:41;;;;;;;0.80;0.80;;;;;;;5.36;92.77;97962.84;5014032;28;20038;-79
2023/11/13 00:35:07;;;;;;;0.80;0.80;;;;;;;5.36;92.86;97963.72;5020636;28;20037;-79
2023/11/13 00:37:33;;;;;;;0.80;0.80;;;;;;;5.42;92.82;97967.47;5020500;28;20065;-79
2023/11/13 00:39:59;;;;;;;0.80;0.80;;;;;;;5.43;92.76;97956.94;5016703;28;20068;-79
2023/11/13 00:42:24;;;;;;;0.80;0.80;;;;;;;5.54;92.51;97975.84;5016016;28;20129;-79
2023/11/13 00:44:49;;;;;;;0.70;0.70;;;;;;;5.56;91.94;97976.81;5018198;28;20518;-79
2023/11/13 00:47:15;;;;;;;0.90;0.90;;;;;;;5.55;92.44;97964.41;5016264;28;20107;-80
2023/11/13 00:49:40;;;;;;;0.88;0.88;;;;;;;5.62;92.48;97961.16;5015438;28;20384;-79
2023/11/13 00:52:06;;;;;;;0.80;0.80;;;;;;;5.64;92.39;97960.34;5013365;28;20041;-79
2023/11/13 00:54:31;;;;;;;0.80;0.80;;;;;;;5.65;92.55;97945.38;5012500;28;20129;-79
2023/11/13 00:56:57;;;;;;;0.80;0.80;;;;;;;5.68;92.36;97939.28;5016156;28;20511;-79
2023/11/13 00:59:23;;;;;;;0.80;0.80;;;;;;;5.70;92.37;97932.28;5004257;28;20033;-79
2023/11/13 01:01:48;;;;;;;0.80;0.80;;;;;;;5.72;92.67;97938.56;5016160;28;20486;-79
2023/11/13 01:04:14;;;;;;;0.80;0.80;;;;;;;5.68;92.42;97940.19;5015717;28;20080;-79
2023/11/13 01:06:39;;;;;;;0.80;0.80;;;;;;;5.64;92.43;97939.19;5013355;28;20037;-79
2023/11/13 01:09:04;;;;;;;0.80;0.80;;;;;;;5.66;92.50;97920.72;5014103;28;20041;-77
2023/11/13 01:11:30;;;;;;;0.80;0.80;;;;;;;5.59;92.34;97916.94;5014132;28;20041;-79
2023/11/13 01:13:55;;;;;;;0.80;0.80;;;;;;;5.54;92.33;97928.22;5002484;28;20037;-77
2023/11/13 01:16:21;;;;;;;0.80;0.80;;;;;;;5.62;92.74;97917.06;5015591;28;20360;-77
2023/11/13 01:18:53;;;;;;;0.80;0.80;;;;;;;5.69;92.10;97926.09;5017906;28;20047;-77
2023/11/13 01:21:20;;;;;;;0.80;0.80;;;;;;;5.63;92.16;97931.19;5018207;28;20585;-78
2023/11/13 01:23:46;;;;;;;0.80;0.80;;;;;;;5.71;92.28;97935.03;4997980;28;20128;-78
2023/11/13 01:26:12;;;;;;;0.77;0.77;;;;;;;5.68;92.26;97929.59;5012806;28;20121;-78
2023/11/13 01:28:38;;;;;;;0.80;0.80;;;;;;;5.74;91.73;97936.84;5012431;28;20699;-80
2023/11/13 01:31:04;;;;;;;0.80;0.80;;;;;;;5.64;92.14;97933.88;5017067;28;20044;-77
2023/11/13 01:33:30;;;;;;;0.82;0.82;;;;;;;5.74;91.82;97928.91;5016152;28;20139;-79
2023/11/13 01:35:55;;;;;;;0.70;0.70;;;;;;;5.72;92.03;97917.38;4996983;28;20124;-77
2023/11/13 01:38:21;;;;;;;0.80;0.80;;;;;;;5.71;92.28;97919.16;5029386;28;20234;-78
2023/11/13 01:40:48;;;;;;;0.80;0.80;;;;;;;5.71;92.09;97915.59;5028684;28;20042;-78
2023/11/13 01:43:22;;;;;;;0.80;0.80;;;;;;;5.83;92.36;97897.47;5029579;28;20029;-77
2023/11/13 01:45:56;;;;;;;0.80;0.80;;;;;;;5.82;92.35;97880.69;5013183;28;20038;-78
2023/11/13 01:48:22;;;;;;;0.70;0.70;;;;;;;5.93;92.75;97877.53;5010985;28;20636;-78
2023/11/13 01:50:49;;;;;;;0.80;0.80;;;;;;;5.85;92.37;97878.16;5026823;28;20042;-77
2023/11/13 01:53:18;;;;;;;0.80;0.80;;;;;;;5.75;92.27;97894.59;5010482;28;20060;-79
2023/11/13 01:55:45;;;;;;;0.80;0.80;;;;;;;5.91;92.38;97894.28;5000439;28;20049;-77
2023/11/13 01:58:12;;;;;;;0.77;0.77;;;;;;;5.81;92.12;97878.91;5015319;28;20044;-77
2023/11/13 02:00:39;;;;;;;0.80;0.80;;;;;;;5.94;92.21;97874.03;5019407;28;20579;-77
2023/11/13 02:03:06;;;;;;;0.80;0.80;;;;;;;5.94;92.49;97871.41;5018485;28;20029;-78
2023/11/13 02:05:32;;;;;;;0.80;0.80;;;;;;;5.95;92.10;97870.56;5028494;28;20181;-78
2023/11/13 02:07:58;;;;;;;0.80;0.80;;;;;;;5.77;92.20;97869.06;5018382;28;20038;-80
2023/11/13 02:10:26;;;;;;;0.80;0.80;;;;;;;5.82;92.32;97870.13;5017261;28;20341;-79
2023/11/13 02:12:54;;;;;;;0.70;0.70;;;;;;;5.85;92.66;97856.09;5012281;28;20067;-78
2023/11/13 02:15:20;;;;;;;0.70;0.70;;;;;;;5.89;92.85;97850.03;5012898;28;20117;-78
2023/11/13 02:18:06;;;;;;;0.77;0.77;;;;;;;5.87;93.16;97857.03;5014120;28;20141;-78
2023/11/13 02:20:32;;;;;;;0.80;0.80;;;;;;;5.86;92.63;97864.06;5010027;28;20050;-78
2023/11/13 02:22:59;;;;;;;0.80;0.80;;;;;;;5.83;92.60;97871.91;5024328;28;20037;-79
2023/11/13 02:25:26;;;;;;;0.80;0.80;;;;;;;5.84;92.78;97871.03;4997894;28;20128;-79
2023/11/13 02:27:55;;;;;;;0.70;0.70;;;;;;;5.93;92.86;97862.56;5026955;28;20069;-78
2023/11/13 02:30:20;;;;;;;0.70;0.70;;;;;;;5.99;93.10;97865.44;5017211;28;20130;-78
2023/11/13 02:32:48;;;;;;;0.80;0.80;;;;;;;6.09;92.88;97863.97;5027634;28;20049;-78
2023/11/13 02:35:14;;;;;;;0.73;0.73;;;;;;;6.11;92.50;97863.16;5013730;28;20044;-81
2023/11/13 02:37:40;;;;;;;0.80;0.80;;;;;;;5.99;92.66;97867.16;5013363;28;20045;-78
2023/11/13 02:40:09;;;;;;;0.80;0.80;;;;;;;5.99;92.63;97865.44;5015593;28;20103;-79
2023/11/13 02:42:39;;;;;;;0.70;0.70;;;;;;;6.04;92.98;97855.88;5017492;28;20051;-78
2023/11/13 02:45:06;;;;;;;0.77;0.77;;;;;;;6.09;93.20;97856.03;5017607;28;20045;-78
2023/11/13 02:47:31;;;;;;;0.80;0.80;;;;;;;6.09;92.70;97853.38;5033667;28;20043;-79
2023/11/13 02:49:57;;;;;;;0.70;0.70;;;;;;;6.06;92.86;97854.19;5016430;28;20042;-78
2023/11/13 02:52:23;;;;;;;0.70;0.70;;;;;;;6.20;92.82;97859.91;5032449;28;20049;-78
2023/11/13 02:54:49;;;;;;;0.70;0.70;;;;;;;6.18;92.66;97848.38;5032884;28;20400;-79
2023/11/13 02:57:14;;;;;;;0.80;0.80;;;;;;;6.14;92.88;97841.19;5017847;28;20125;-79
2023/11/13 02:59:40;;;;;;;0.80;0.80;;;;;;;6.10;93.58;97837.53;5016404;28;20136;-78
2023/11/13 03:02:05;;;;;;;0.70;0.70;;;;;;;6.13;93.93;97827.06;5016008;28;20157;-79
2023/11/13 03:04:31;;;;;;;0.68;0.68;;;;;;;6.22;94.35;97826.41;5015749;28;20045;-79
2023/11/13 03:06:56;;;;;;;0.70;0.70;;;;;;;6.35;94.63;97825.06;5022515;28;21583;-79
2023/11/13 03:09:21;;;;;;;0.73;0.73;;;;;;;6.56;95.04;97814.22;5014551;28;20483;-79
2023/11/13 03:11:47;;;;;;;0.70;0.70;;;;;;;6.61;94.69;97812.59;5022130;28;20042;-78
2023/11/13 03:14:14;;;;;;;0.73;0.73;;;;;;;6.53;94.75;97808.84;5029790;28;20427;-78
2023/11/13 03:16:39;;;;;;;0.75;0.75;;;;;;;6.53;94.46;97819.44;5031797;28;20075;-78
2023/11/13 03:19:05;;;;;;;0.80;0.80;;;;;;;6.48;94.27;97808.69;5016143;28;20499;-78
2023/11/13 03:21:30;;;;;;;0.60;0.60;;;;;;;6.57;94.83;97808.09;5013956;28;20077;-78
2023/11/13 03:23:56;;;;;;;0.70;0.70;;;;;;;6.71;95.14;97827.00;5018572;28;20081;-78
2023/11/13 03:26:21;;;;;;;0.70;0.70;;;;;;;6.66;94.67;97834.88;5014719;28;20474;-79
2023/11/13 03:28:47;;;;;;;0.80;0.80;;;;;;;6.65;94.39;97833.03;5032046;28;20096;-78
2023/11/13 03:31:13;;;;;;;0.80;0.80;;;;;;;6.57;94.74;97823.97;5017379;28;20069;-78
2023/11/13 03:33:39;;;;;;;0.80;0.80;;;;;;;6.59;94.88;97828.47;5016304;28;20569;-78
2023/11/13 03:36:05;;;;;;;0.70;0.70;;;;;;;6.62;94.84;97814.41;5017163;28;20395;-78
2023/11/13 03:38:30;;;;;;;0.75;0.75;;;;;;;6.68;94.86;97825.19;5028452;28;20408;-79
2023/11/13 03:40:56;;;;;;;0.75;0.75;;;;;;;6.63;94.95;97814.44;5015494;28;20045;-79
2023/11/13 03:43:22;;;;;;;0.80;0.80;;;;;;;6.74;94.61;97821.81;5016167;28;20042;-78
2023/11/13 03:45:47;;;;;;;0.70;0.70;;;;;;;6.77;94.72;97817.50;5016955;28;20045;-78
2023/11/13 03:48:13;;;;;;;0.80;0.80;;;;;;;6.79;94.56;97830.81;5016213;28;20132;-79
2023/11/13 03:50:38;;;;;;;0.70;0.70;;;;;;;6.81;94.58;97837.06;5018841;28;20059;-79
2023/11/13 03:53:04;;;;;;;0.70;0.70;;;;;;;6.94;94.65;97823.28;5016635;28;20089;-79
2023/11/13 03:55:29;;;;;;;0.70;0.70;;;;;;;6.91;94.47;97824.09;5017625;28;20124;-79
2023/11/13 03:57:55;;;;;;;0.70;0.70;;;;;;;6.91;94.64;97831.16;5016046;28;20038;-79
2023/11/13 04:00:21;;;;;;;0.70;0.70;;;;;;;6.95;94.58;97851.63;5015090;28;21140;-79
2023/11/13 04:02:50;;;;;;;0.60;0.60;;;;;;;6.93;94.23;97835.66;5032717;28;20044;-79
2023/11/13 04:05:15;;;;;;;0.70;0.70;;;;;;;6.95;94.56;97851.63;5015446;28;20045;-79
2023/11/13 04:07:41;;;;;;;0.70;0.70;;;;;;;6.98;94.17;97853.44;5013835;28;20129;-79
2023/11/13 04:10:13;;;;;;;0.65;0.65;;;;;;;6.95;94.40;97854.28;5014904;28;20128;-79
2023/11/13 04:12:42;;;;;;;0.70;0.70;;;;;;;7.00;94.25;97852.66;5016285;28;20033;-79
2023/11/13 04:15:08;;;;;;;0.70;0.70;;;;;;;6.98;94.04;97853.44;5015845;28;20072;-79
2023/11/13 04:17:35;;;;;;;0.60;0.60;;;;;;;6.97;94.30;97862.25;5027556;28;20037;-79
2023/11/13 04:20:07;;;;;;;0.70;0.70;;;;;;;6.98;93.97;97870.25;5015346;28;20090;-79
2023/11/13 04:22:33;;;;;;;0.60;0.60;;;;;;;6.97;93.92;97864.91;5031909;28;20037;-79
2023/11/13 04:25:02;;;;;;;0.80;0.80;;;;;;;6.91;94.49;97853.28;5016581;28;20045;-78
2023/11/13 04:27:29;;;;;;;0.70;0.70;;;;;;;6.84;94.30;97866.28;5017426;28;20317;-79
2023/11/13 04:29:55;;;;;;;0.60;0.60;;;;;;;6.84;94.83;97868.94;5014016;28;20041;-78
2023/11/13 04:32:22;;;;;;;0.70;0.70;;;;;;;6.86;94.96;97878.75;5017121;28;20049;-78
2023/11/13 04:34:47;;;;;;;0.70;0.70;;;;;;;6.89;94.93;97885.88;5013821;28;20132;-78
2023/11/13 04:37:13;;;;;;;0.70;0.70;;;;;;;6.97;94.52;97887.03;5015035;28;20056;-79
2023/11/13 04:39:39;;;;;;;0.60;0.60;;;;;;;6.93;94.58;97883.38;5013737;28;20153;-78
2023/11/13 04:42:05;;;;;;;0.70;0.70;;;;;;;6.84;94.77;97896.34;5013951;28;20045;-78
2023/11/13 04:44:30;;;;;;;0.60;0.60;;;;;;;6.87;94.67;97883.19;5016914;28;20034;-77
2023/11/13 04:46:56;;;;;;;0.70;0.70;;;;;;;6.91;94.88;97878.91;5015146;28;20798;-78
2023/11/13 04:49:21;;;;;;;0.70;0.70;;;;;;;6.92;94.99;97880.69;5016333;28;20122;-77
2023/11/13 04:51:46;;;;;;;0.70;0.70;;;;;;;6.99;94.95;97884.41;5016254;28;20041;-78
2023/11/13 04:54:12;;;;;;;0.60;0.60;;;;;;;6.97;95.09;97879.06;5015156;28;20063;-78
2023/11/13 04:56:38;;;;;;;0.60;0.60;;;;;;;6.97;94.87;97881.72;5016814;28;20088;-78
2023/11/13 04:59:03;;;;;;;0.68;0.68;;;;;;;6.96;94.87;97890.53;5015395;28;20037;-78
2023/11/13 05:01:29;;;;;;;0.70;0.70;;;;;;;7.01;95.17;97880.06;5012574;28;20041;-78
2023/11/13 05:03:54;;;;;;;0.70;0.70;;;;;;;6.96;95.22;97885.22;5011319;28;20037;-78
2023/11/13 05:06:20;;;;;;;0.60;0.60;;;;;;;7.02;95.01;97887.16;5013673;28;20069;-78
2023/11/13 05:08:45;;;;;;;0.60;0.60;;;;;;;7.10;95.18;97877.69;5014636;28;20037;-78
2023/11/13 05:11:29;;;;;;;0.70;0.70;;;;;;;7.10;95.33;97883.00;5013379;28;20045;-78
2023/11/13 05:13:54;;;;;;;0.70;0.70;;;;;;;7.06;95.15;97883.75;5012848;28;20095;-78
2023/11/13 05:16:24;;;;;;;0.70;0.70;;;;;;;7.07;95.18;97891.75;5015782;28;20124;-78
2023/11/13 05:18:51;;;;;;;0.70;0.70;;;;;;;7.06;95.03;97882.00;5027491;28;20049;-78
2023/11/13 05:21:18;;;;;;;0.60;0.60;;;;;;;7.03;94.83;97875.69;5015719;28;20127;-79
2023/11/13 05:23:43;;;;;;;0.80;0.80;;;;;;;7.05;95.06;97884.63;5019657;28;20084;-78
2023/11/13 05:26:09;;;;;;;0.68;0.68;;;;;;;7.18;95.07;97877.03;5014831;28;20077;-79
2023/11/13 05:28:34;;;;;;;0.60;0.60;;;;;;;7.15;95.17;97886.66;5014231;28;20037;-79
2023/11/13 05:31:00;;;;;;;0.70;0.70;;;;;;;7.14;95.01;97883.13;5013044;28;20040;-79
2023/11/13 05:33:27;;;;;;;0.70;0.70;;;;;;;7.28;94.90;97880.88;5017654;28;20212;-79
2023/11/13 05:35:53;;;;;;;0.70;0.70;;;;;;;7.36;94.70;97889.03;5014718;28;20041;-79
2023/11/13 05:38:19;;;;;;;0.70;0.70;;;;;;;7.36;94.80;97897.88;5011799;28;20029;-79
2023/11/13 05:40:45;;;;;;;0.60;0.60;;;;;;;7.42;94.60;97878.56;5013880;28;20450;-79
2023/11/13 05:43:10;;;;;;;0.70;0.70;;;;;;;7.39;94.89;97876.75;5014084;28;20471;-78
2023/11/13 05:45:36;;;;;;;0.70;0.70;;;;;;;7.37;94.81;97878.44;5014104;28;20291;-80
2023/11/13 05:48:02;;;;;;;0.68;0.68;;;;;;;7.36;95.04;97875.75;5015970;28;20116;-79
2023/11/13 05:50:28;;;;;;;0.70;0.70;;;;;;;7.46;94.71;97875.16;5002392;28;20029;-79
2023/11/13 05:52:54;;;;;;;0.70;0.70;;;;;;;7.50;94.90;97879.69;5013316;28;20056;-79
2023/11/13 05:55:19;;;;;;;0.60;0.60;;;;;;;7.45;95.25;97876.91;5011246;28;20673;-79
2023/11/13 05:57:45;;;;;;;0.65;0.65;;;;;;;7.55;95.13;97882.47;5028333;28;20349;-79
2023/11/13 06:00:12;;;;;;;0.60;0.60;;;;;;;7.68;95.51;97880.19;5013409;28;20029;-79
2023/11/13 06:02:40;;;;;;;0.60;0.60;;;;;;;7.61;95.57;97878.22;5012092;28;20049;-79
2023/11/13 06:05:06;;;;;;;0.63;0.63;;;;;;;7.55;95.19;97891.31;5015636;28;20051;-79
2023/11/13 06:07:31;;;;;;;0.60;0.60;;;;;;;7.65;95.37;97898.69;5015113;28;20069;-78
2023/11/13 06:09:57;;;;;;;0.60;0.60;;;;;;;7.89;95.60;97902.84;5013963;28;20041;-78
2023/11/13 06:12:26;;;;;;;0.70;0.70;;;;;;;7.75;95.59;97906.91;5015334;28;20038;-78
2023/11/13 06:14:51;;;;;;;0.65;0.65;;;;;;;7.77;95.67;97906.09;5013042;28;20041;-78
2023/11/13 06:17:17;;;;;;;0.63;0.63;;;;;;;7.76;95.33;97917.59;5017328;28;20041;-77
2023/11/13 06:19:42;;;;;;;0.55;0.55;;;;;;;7.82;95.81;97912.44;5030526;28;20030;-77
2023/11/13 06:22:11;;;;;;;0.60;0.60;;;;;;;7.79;95.41;97916.75;5019149;28;20046;-77
2023/11/13 06:24:38;;;;;;;0.60;0.60;;;;;;;7.85;95.84;97922.22;5017842;28;20080;-78
2023/11/13 06:27:07;;;;;;;0.70;0.70;;;;;;;8.13;95.38;97921.19;5015172;28;20034;-77
2023/11/13 06:29:32;;;;;;;0.70;0.70;;;;;;;7.95;95.18;97933.16;5019143;28;20041;-78
2023/11/13 06:31:58;;;;;;;0.60;0.60;;;;;;;7.99;95.52;97928.78;5020043;28;20065;-78
2023/11/13 06:34:24;;;;;;;0.60;0.60;;;;;;;7.97;95.21;97935.84;5016183;28;20040;-79
2023/11/13 06:36:51;;;;;;;0.60;0.60;;;;;;;7.97;95.34;97939.38;5020338;28;20050;-79
2023/11/13 06:39:17;;;;;;;0.70;0.70;;;;;;;7.91;95.08;97947.19;5020467;28;20563;-79
2023/11/13 06:41:44;;;;;;;0.60;0.60;;;;;;;7.92;95.29;97943.69;5021811;28;20037;-80
2023/11/13 06:44:10;;;;;;;0.60;0.60;;;;;;;8.03;95.62;97945.72;5019787;28;20048;-80
2023/11/13 06:46:38;;;;;;;0.60;0.60;;;;;;;8.07;95.62;97942.28;5016882;28;20044;-79
2023/11/13 06:49:03;;;;;;;0.60;0.60;;;;;;;8.11;95.73;97931.78;5029976;28;20033;-79
2023/11/13 06:51:30;;;;;;;0.60;0.60;;;;;;;8.19;95.87;97937.28;5017527;28;20053;-80
2023/11/13 06:53:56;;;;;;;0.70;0.70;;;;;;;8.24;95.95;97927.69;5035633;28;20033;-79
2023/11/13 06:56:21;;;;;;;0.60;0.60;;;;;;;8.14;95.84;97933.59;5017882;28;20037;-80
2023/11/13 06:58:49;;;;;;;0.70;0.70;;;;;;;8.06;95.84;97941.38;5001371;28;20046;-79
2023/11/13 07:01:15;;;;;;;0.60;0.60;;;;;;;8.03;95.44;97948.38;5021656;28;20049;-80
2023/11/13 07:03:40;;;;;;;0.70;0.70;;;;;;;8.12;95.48;97951.28;5024962;28;20616;-81
2023/11/13 07:06:10;;;;;;;0.60;0.60;;;;;;;8.05;95.42;97950.22;5024163;28;20045;-81
2023/11/13 07:08:36;;;;;;;0.60;0.60;;;;;;;8.04;95.21;97953.72;5024466;28;20037;-81
2023/11/13 07:11:02;;;;;;;0.70;0.70;;;;;;;8.08;95.32;97955.59;5019702;28;20030;-81
2023/11/13 07:13:29;;;;;;;0.60;0.60;;;;;;;8.08;95.37;97957.34;5024910;28;20099;-81
2023/11/13 07:15:55;;;;;;;0.70;0.70;;;;;;;8.09;95.60;97962.69;5025960;28;20648;-79
2023/11/13 07:18:20;;;;;;;0.60;0.60;;;;;;;8.14;95.43;97973.44;5016669;28;20088;-78
2023/11/13 07:20:46;;;;;;;0.60;0.60;;;;;;;8.19;95.39;97975.41;5016477;28;20124;-80
2023/11/13 07:23:16;;;;;;;0.63;0.63;;;;;;;8.14;95.18;97970.78;5016200;28;20045;-79
2023/11/13 07:25:44;;;;;;;0.70;0.70;;;;;;;8.12;95.35;97973.41;5018660;28;20041;-79
2023/11/13 07:28:10;;;;;;;0.60;0.60;;;;;;;8.33;94.97;97972.16;5015190;28;20887;-79
2023/11/13 07:30:37;;;;;;;0.70;0.70;;;;;;;8.27;94.85;97980.00;5015246;28;20120;-78
2023/11/13 07:33:03;;;;;;;0.60;0.60;;;;;;;8.34;95.12;97974.91;5017806;28;20063;-79
2023/11/13 07:35:29;;;;;;;0.70;0.70;;;;;;;8.32;94.83;97979.25;5017152;28;20488;-79
2023/11/13 07:37:57;;;;;;;0.60;0.60;;;;;;;8.41;94.74;97979.53;5017936;28;20045;-79
2023/11/13 07:40:25;;;;;;;0.60;0.60;;;;;;;8.42;94.44;97972.44;5015699;28;20068;-79
2023/11/13 07:42:51;;;;;;;0.60;0.60;;;;;;;8.29;94.72;97971.22;5017316;28;20463;-79
2023/11/13 07:45:17;;;;;;;0.70;0.70;;;;;;;8.33;94.67;97965.09;5018065;28;20118;-79
2023/11/13 07:47:43;;;;;;;0.60;0.60;;;;;;;8.40;94.50;97969.75;5018323;28;20116;-79
2023/11/13 07:50:12;;;;;;;0.60;0.60;;;;;;;8.39;94.51;97964.41;5017841;28;20491;-79
2023/11/13 07:52:42;;;;;;;0.60;0.60;;;;;;;8.42;94.56;97953.84;5017059;28;20041;-79
2023/11/13 07:55:10;;;;;;;0.70;0.70;;;;;;;8.42;94.70;97957.38;5017033;28;20053;-79
2023/11/13 07:57:37;;;;;;;0.65;0.65;;;;;;;8.45;94.59;97956.59;5016654;28;20561;-79
2023/11/13 08:00:05;;;;;;;0.60;0.60;;;;;;;8.49;94.49;97958.47;5015933;28;20048;-79
2023/11/13 08:02:40;;;;;;;0.60;0.60;;;;;;;8.57;94.67;97955.97;5020049;28;20049;-79
2023/11/13 08:05:10;;;;;;;0.50;0.50;;;;;;;8.60;94.75;97972.91;5031918;28;20060;-79
2023/11/13 08:07:39;;;;;;;0.68;0.68;;;;;;;8.64;94.56;97976.56;5021960;28;20058;-79
2023/11/13 08:10:12;;;;;;;0.60;0.60;;;;;;;8.72;94.47;97975.00;5016672;28;20034;-79
2023/11/13 08:12:42;;;;;;;0.60;0.60;;;;;;;8.77;94.29;97968.00;5015317;28;20490;-79
2023/11/13 08:15:12;;;;;;;0.50;0.50;;;;;;;8.67;94.48;97961.56;5016348;28;20458;-80
2023/11/13 08:17:37;;;;;;;0.60;0.60;;;;;;;8.74;94.67;97965.28;5017668;28;20051;-79
2023/11/13 08:20:03;;;;;;;0.60;0.60;;;;;;;8.77;94.48;97954.72;5015638;28;20034;-78
2023/11/13 08:22:29;;;;;;;0.60;0.60;;;;;;;8.88;94.41;97968.25;5017072;28;20141;-79
2023/11/13 08:24:54;;;;;;;0.60;0.60;;;;;;;8.89;94.13;97970.94;5018762;28;20041;-79
2023/11/13 08:27:19;;;;;;;0.60;0.60;;;;;;;8.90;93.90;97974.50;5014900;28;20053;-79
2023/11/13 08:29:45;;;;;;;0.60;0.60;;;;;;;9.04;93.81;97973.06;5016205;28;20119;-79
2023/11/13 08:32:10;;;;;;;0.60;0.60;;;;;;;9.11;94.13;97969.69;5013354;28;20088;-78
2023/11/13 08:34:36;;;;;;;0.50;0.50;;;;;;;9.14;94.18;97976.81;5013021;28;20037;-78
2023/11/13 08:37:03;;;;;;;0.50;0.50;;;;;;;9.17;93.73;97963.59;5012951;28;20400;-77
2023/11/13 08:39:29;;;;;;;0.70;0.70;;;;;;;9.17;93.83;97968.91;5013972;28;20400;-77
2023/11/13 08:41:56;;;;;;;0.55;0.55;;;;;;;9.19;93.78;97964.50;5013138;28;20038;-78
2023/11/13 08:44:24;;;;;;;0.60;0.60;;;;;;;9.18;93.61;97957.41;5015418;28;20046;-77
2023/11/13 08:46:49;;;;;;;0.52;0.52;;;;;;;9.20;93.66;97945.03;5014705;28;20126;-77
2023/11/13 08:49:15;;;;;;;0.50;0.50;;;;;;;9.17;93.48;97955.63;5013843;28;20041;-78
2023/11/13 08:51:40;;;;;;;0.52;0.52;;;;;;;9.13;93.82;97959.06;5016994;28;20049;-78
2023/11/13 08:54:06;;;;;;;0.60;0.60;;;;;;;9.27;93.75;97970.03;5031964;28;20068;-77
2023/11/13 08:56:32;;;;;;;0.50;0.50;;;;;;;9.22;93.27;97956.63;5014224;28;20041;-77
2023/11/13 08:58:58;;;;;;;0.52;0.52;;;;;;;9.16;93.42;97965.38;5017256;28;20632;-77
2023/11/13 09:01:26;;;;;;;0.60;0.60;;;;;;;9.16;93.86;97967.13;5014658;28;20116;-80
2023/11/13 09:03:54;;;;;;;;;;;;;;;9.09;94.29;97946.56;5013285;28;20487;-77
2023/11/13 09:06:20;;;;;;;0.60;0.60;;;;;;;9.15;94.60;97936.97;5015299;28;21529;-79
2023/11/13 09:08:48;;;;;;;0.60;0.60;;;;;;;9.17;94.64;97931.66;5016803;28;20041;-78
2023/11/13 09:11:17;;;;;;;0.60;0.60;;;;;;;9.27;94.69;97917.69;5015742;28;20033;-79
2023/11/13 09:13:46;;;;;;;0.60;0.60;;;;;;;9.28;94.09;97916.81;5030444;28;20041;-79
2023/11/13 09:16:14;;;;;;;0.60;0.60;;;;;;;9.33;93.53;97922.22;5014750;28;20041;-79
2023/11/13 09:18:41;;;;;;;0.60;0.60;;;;;;;9.36;93.14;97909.88;5021212;28;20038;-78
2023/11/13 09:21:06;;;;;;;0.60;0.60;;;;;;;9.36;93.14;97909.88;5013701;28;20049;-79
2023/11/13 09:23:32;;;;;;;0.60;0.60;;;;;;;9.34;92.59;97898.31;5010065;28;20037;-78
2023/11/13 09:25:57;;;;;;;0.50;0.50;;;;;;;9.35;92.74;97888.56;5013318;28;20080;-77
2023/11/13 09:28:23;;;;;;;0.60;0.60;;;;;;;9.39;92.29;97896.66;5012376;28;20084;-79
2023/11/13 09:30:49;;;;;;;0.60;0.60;;;;;;;9.38;92.23;97907.25;5011911;28;20033;-78
2023/11/13 09:33:17;;;;;;;0.60;0.60;;;;;;;9.36;92.29;97901.00;5015899;28;20088;-79
2023/11/13 09:35:42;;;;;;;;;;;;;;;9.33;92.25;97885.84;5015068;28;20037;-79
2023/11/13 09:38:09;;;;;;;0.60;0.60;;;;;;;9.34;92.02;97895.66;5013594;28;19921;-79
2023/11/13 09:40:34;;;;;;;0.60;0.60;;;;;;;9.33;91.79;97880.53;5029772;28;20052;-81
2023/11/13 09:43:14;;;;;;;0.60;0.60;;;;;;;9.33;91.36;97893.84;5013849;28;20057;-81
2023/11/13 09:45:52;;;;;;;0.60;0.60;;;;;;;9.32;91.06;97894.72;5015592;28;20034;-78
2023/11/13 09:48:20;;;;;;;0.60;0.60;;;;;;;9.35;90.61;97893.91;5014337;28;20538;-80
2023/11/13 09:50:47;;;;;;;0.70;0.70;;;;;;;9.41;90.61;97897.56;5014218;28;20815;-80
2023/11/13 09:53:15;;;;;;;0.60;0.60;;;;;;;9.56;90.19;97902.31;5029580;28;20041;-81
2023/11/13 09:55:41;;;;;;;0.60;0.60;;;;;;;9.50;90.96;97883.56;5028791;28;20045;-80
2023/11/13 09:58:09;;;;;;;0.55;0.55;;;;;;;9.52;90.76;97872.03;5015249;28;20751;-80
2023/11/13 10:00:35;;;;;;;0.50;0.50;;;;;;;9.52;90.81;97879.13;5015788;28;20143;-80
2023/11/13 10:03:01;;;;;;;0.60;0.60;;;;;;;9.52;90.79;97877.38;5015805;28;20042;-80
2023/11/13 10:05:29;;;;;;;0.60;0.60;;;;;;;9.52;91.15;97866.72;5015532;28;20033;-81
2023/11/13 10:07:57;;;;;;;0.60;0.60;;;;;;;9.51;90.63;97862.25;5015345;28;20073;-79
2023/11/13 10:10:29;;;;;;;;;;;;;;;9.61;90.40;97860.69;5017729;28;20042;-79
2023/11/13 10:13:00;;;;;;;0.70;0.70;;;;;;;9.74;90.34;97864.47;5031818;28;20382;-78
2023/11/13 10:15:29;;;;;;;0.60;0.60;;;;;;;9.85;90.34;97868.22;5015535;28;20091;-78
2023/11/13 10:17:59;;;;;;;0.60;0.60;;;;;;;9.79;89.80;97852.13;5012395;28;20100;-78
2023/11/13 10:20:26;;;;;;;0.60;0.60;;;;;;;9.82;89.75;97857.53;5014781;28;20119;-78
2023/11/13 10:22:58;;;;;;;0.60;0.60;;;;;;;9.89;89.64;97854.09;5012873;28;20056;-78
2023/11/13 10:25:39;;;;;;;0.57;0.57;;;;;;;9.85;90.13;97854.00;5013595;28;20048;-78
2023/11/13 10:28:05;;;;;;;0.50;0.50;;;;;;;9.92;90.38;97838.16;5020332;28;20061;-78
2023/11/13 10:30:30;;;;;;;0.50;0.50;;;;;;;9.98;90.19;97837.38;5013750;28;20037;-78
2023/11/13 10:32:58;;;;;;;0.50;0.50;;;;;;;9.94;90.10;97830.19;5012763;28;20041;-77
2023/11/13 10:35:36;;;;;;;0.50;0.50;;;;;;;10.02;90.12;97821.47;5012235;28;20041;-78
2023/11/13 10:38:07;;;;;;;0.60;0.60;;;;;;;9.94;90.17;97815.09;5016134;28;20041;-78
2023/11/13 10:40:35;;;;;;;0.50;0.50;;;;;;;9.96;90.73;97815.09;5012141;28;20045;-78
2023/11/13 10:43:04;;;;;;;0.60;0.60;;;;;;;9.98;90.33;97808.06;5015858;28;20048;-78
2023/11/13 10:45:32;;;;;;;0.60;0.60;;;;;;;9.99;90.73;97805.41;5012114;28;20038;-78
2023/11/13 10:47:58;;;;;;;0.50;0.50;;;;;;;10.01;91.11;97801.03;5013251;28;20069;-78
2023/11/13 10:50:24;;;;;;;0.60;0.60;;;;;;;10.00;90.73;97808.97;5011990;28;20072;-78
2023/11/13 10:52:54;;;;;;;0.68;0.68;;;;;;;10.01;91.29;97790.38;5012796;28;20534;-78
2023/11/13 10:55:22;;;;;;;0.60;0.60;;;;;;;10.00;91.39;97787.66;5011988;28;20185;-78
2023/11/13 10:57:48;;;;;;;0.60;0.60;;;;;;;10.06;91.43;97777.09;5013085;28;20041;-78
2023/11/13 11:00:14;;;;;;;0.60;0.60;;;;;;;10.13;91.06;97778.09;5025816;28;20029;-78
2023/11/13 11:02:48;;;;;;;0.55;0.55;;;;;;;10.26;90.75;97785.44;5015179;28;20033;-78
2023/11/13 11:05:22;;;;;;;0.60;0.60;;;;;;;10.29;90.78;97769.47;5030577;28;20037;-78
2023/11/13 11:07:55;;;;;;;0.57;0.57;;;;;;;10.38;91.10;97761.59;5015211;28;20034;-78
2023/11/13 11:10:26;;;;;;;0.50;0.50;;;;;;;10.49;91.25;97760.00;5018776;28;20084;-79
2023/11/13 11:13:00;;;;;;;0.50;0.50;;;;;;;10.48;91.04;97757.31;5018036;28;20037;-78
2023/11/13 11:15:50;;;;;;;0.50;0.50;;;;;;;10.59;90.60;97761.03;5011744;28;20498;-78
2023/11/13 11:18:21;;;;;;;0.50;0.50;;;;;;;10.69;90.78;97748.72;5015887;28;20095;-78
2023/11/13 11:20:59;;;;;;;0.50;0.50;;;;;;;10.85;90.22;97740.00;5018132;28;20125;-78
2023/11/13 11:23:30;;;;;;;0.50;0.50;;;;;;;10.89;90.30;97749.84;5018382;28;20041;-78
2023/11/13 11:26:00;;;;;;;0.50;0.50;;;;;;;11.01;89.91;97741.97;5017726;28;20087;-78
2023/11/13 11:28:37;;;;;;;0.50;0.50;;;;;;;11.30;88.81;97738.72;5019303;28;20038;-78
2023/11/13 11:31:38;;;;;;;0.45;0.45;;;;;;;11.41;88.47;97739.75;5019971;28;20191;-78
2023/11/13 11:34:07;;;;;;;0.50;0.50;;;;;;;11.52;88.43;97724.69;5016375;28;20092;-77
2023/11/13 11:36:37;;;;;;;0.45;0.45;;;;;;;11.71;87.78;97731.09;5020021;28;20395;-79
2023/11/13 11:39:21;;;;;;;0.40;0.40;;;;;;;11.78;87.88;97732.03;5018147;28;20065;-78
2023/11/13 11:41:54;;;;;;;0.50;0.50;;;;;;;11.87;87.75;97729.47;5019651;28;20207;-77